首页
METAR-TAF:

METAR-TAF

机场 :

Sullivan County International Airport

Monticello, 紐約州, 美国

纬度: 41-42N, 经度: 074-48W, 海拔: 428米

当前天气观测

该预报发布于38分钟前的15:56 UTC
风速13节,风向西北,有时为18节阵风
温度 3°C
湿度 60%
气压 1014 hPa
能見度: 16.1公里
阴天层高于6000英尺

METAR: KMSV 201556Z AUTO 31013G18KT 10SM OVC060 03/M04 A2995 RMK AO2 SLP155 T00281039

时间: 11:34 (16:34 UTC)


TAF: 丢失

超过4000个机场的气象观测和天气预报(METAR&TAF报告)。

可查询的气象台以黄色和红色小点在地图上表示。

将鼠标移到小点上方,可查看气象台名称。

然后点击查看天气观测和预报。

如需切换地图:点击带黑十字的绿色按钮放大地图;点击带横线的绿色按钮缩小地图;或者点击绿色箭头查看邻近地区的地图。


METAR-TAF: